Nord Snow Queen — 9V7636 — position and weather

sailwx.info

Track history (hours):
 
Tides and Currents Weather Stations Pressure Air Temp Water Temp Dewpoint Dewpoint Depression Visibility Wind Speed Wind Dir Waves Ship Positions

Nord Snow Queen

Last reported at 2017-Nov-25 08:52 UTC. Time now 2017-Dec-12 12:39 UTC.
Position N 27°35' W 015°14'.
Warning: this ship's position is 17 days out of date.

Length 183 m; draft 11 m.

Type: Ship. MMSI: 564359000.

Date/timePositionNaut miles runAvg speedWind from/ knotsBaromVisibWave heightAir tempDewpointWater temp
2017-Nov-25 08:52N 27°35' W 015°14'512.2
2017-Nov-25 08:30N 27°39' W 015°12'612.3
2017-Nov-25 08:00N 27°45' W 015°10'612.6
2017-Nov-25 07:30N 27°51' W 015°07'713.0
2017-Nov-25 07:00N 27°57' W 015°05'612.9
2017-Nov-25 06:30N 28°03' W 015°02'612.5
2017-Nov-25 06:00N 28°09' W 014°60'612.5
2017-Nov-25 05:30N 28°15' W 014°57'612.8
2017-Nov-25 05:00N 28°21' W 014°55'713.1
2017-Nov-25 04:30N 28°27' W 014°52'713.3
2017-Nov-25 04:00N 28°33' W 014°50'713.0
2017-Nov-25 03:30N 28°40' W 014°48'612.9
2017-Nov-25 03:00N 28°46' W 014°46'712.9
2017-Nov-25 02:28N 28°53' W 014°45'612.9
2017-Nov-25 02:01N 28°58' W 014°43'713.1
2017-Nov-25 01:30N 29°05' W 014°41'713.0
2017-Nov-25 01:01N 29°11' W 014°39'713.0
2017-Nov-25 00:30N 29°17' W 014°37'613.0
2017-Nov-25 00:01N 29°24' W 014°35'713.0
2017-Nov-24 23:31N 29°30' W 014°33'613.0
2017-Nov-24 23:01N 29°36' W 014°31'713.0
2017-Nov-24 22:30N 29°42' W 014°29'612.8
2017-Nov-24 22:00N 29°49' W 014°27'612.6
2017-Nov-24 21:30N 29°55' W 014°25'612.6
2017-Nov-24 21:00N 30°01' W 014°24'612.6
2017-Nov-24 20:30N 30°07' W 014°22'612.5
2017-Nov-24 20:00N 30°13' W 014°20'612.7
2017-Nov-24 19:30N 30°19' W 014°18'612.7
2017-Nov-24 19:00N 30°25' W 014°16'612.4
2017-Nov-24 18:30N 30°31' W 014°14'612.3
2017-Nov-24 18:00N 30°37' W 014°12'912.5
2017-Nov-24 17:15N 30°46' W 014°10'812.3
2017-Nov-24 16:37N 30°54' W 014°07'3212.1
2017-Nov-24 13:57N 31°25' W 013°57'612.1
2017-Nov-24 13:28N 31°31' W 013°56'11912.4
2017-Nov-24 03:50N 33°26' W 013°19'412.7
2017-Nov-24 03:29N 33°30' W 013°18'  
2017-Nov-19 22:47N 50°27' W 000°23'311.9
2017-Nov-19 22:30N 50°28' W 000°18'611.6
2017-Nov-19 22:00N 50°29' W 000°09'611.3
2017-Nov-19 21:30N 50°31' W 000°01'611.2
2017-Nov-19 21:00N 50°33' E 000°08'711.4
2017-Nov-19 20:26N 50°34' E 000°17'512.0
2017-Nov-19 20:00N 50°36' E 000°25'612.6
2017-Nov-19 19:30N 50°38' E 000°35'713.8
2017-Nov-19 19:00N 50°42' E 000°43'714.5
2017-Nov-19 18:30N 50°46' E 000°53'1414.8
2017-Nov-19 17:32N 50°55' E 001°11'114.7
2017-Nov-19 17:28N 50°56' E 001°12'714.5
2017-Nov-19 17:00N 51°00' E 001°20'714.0
2017-Nov-19 16:30N 51°05' E 001°28'713.3
2017-Nov-19 16:00N 51°09' E 001°37'612.5
2017-Nov-19 15:30N 51°13' E 001°44'612.0
2017-Nov-19 15:00N 51°17' E 001°50'611.6
2017-Nov-19 14:30N 51°22' E 001°55'5 9.8
2017-Nov-19 14:00N 51°25' E 002°02'612.0
2017-Nov-19 13:30N 51°22' E 002°10'611.0
2017-Nov-19 13:00N 51°20' E 002°19'611.5
2017-Nov-19 12:30N 51°22' E 002°28'611.3
2017-Nov-19 11:58N 51°23' E 002°37'510.7
2017-Nov-19 11:30N 51°22' E 002°45'510.6
2017-Nov-19 11:00N 51°22' E 002°54'611.8
2017-Nov-19 10:30N 51°24' E 003°02'612.0
2017-Nov-19 10:00N 51°24' E 003°12'611.7
2017-Nov-19 09:30N 51°25' E 003°21'611.8
2017-Nov-19 09:00N 51°25' E 003°31'4 8.4
2017-Nov-19 08:30N 51°26' E 003°37'4 9.0
2017-Nov-19 08:01N 51°23' E 003°43'612.1
2017-Nov-19 07:30N 51°21' E 003°52'612.7
2017-Nov-19 07:00N 51°26' E 003°58'5 9.7
2017-Nov-19 06:31N 51°22' E 004°04'611.0
2017-Nov-19 06:00N 51°23' E 004°13'4 7.5
2017-Nov-19 05:31N 51°21' E 004°17'0 0.1
2017-Nov-19 05:00N 51°21' E 004°17'0 0.0
2017-Nov-19 04:30N 51°21' E 004°17'1 1.9
2017-Nov-19 04:00N 51°20' E 004°18'4 7.2
2017-Nov-19 03:30N 51°17' E 004°21'1 1.0
2017-Nov-19 02:59N 51°16' E 004°21'0 0.0
2017-Nov-19 02:29N 51°16' E 004°21'0 0.0
2017-Nov-19 01:59N 51°16' E 004°21'0 0.0
2017-Nov-19 01:29N 51°16' E 004°21'0 0.0
2017-Nov-19 00:56N 51°16' E 004°21'0 0.0
2017-Nov-19 00:29N 51°16' E 004°21'0 0.0
2017-Nov-18 23:59N 51°16' E 004°21'0 0.0
2017-Nov-18 23:20N 51°16' E 004°21'0 0.0
2017-Nov-18 22:56N 51°16' E 004°21'0 0.0
2017-Nov-18 22:20N 51°16' E 004°21'0 0.0
2017-Nov-18 21:53N 51°16' E 004°21'0 0.0
2017-Nov-18 21:26N 51°16' E 004°21'0 0.0
2017-Nov-18 20:59N 51°16' E 004°21'0 0.0
2017-Nov-18 20:17N 51°16' E 004°21'0 0.0
2017-Nov-18 19:56N 51°16' E 004°21'0 0.0
2017-Nov-18 19:29N 51°16' E 004°21'0 0.0
2017-Nov-18 18:56N 51°16' E 004°21'0 0.0
2017-Nov-18 18:20N 51°16' E 004°21'0 0.0
2017-Nov-18 17:56N 51°16' E 004°21'0 0.0
2017-Nov-18 17:29N 51°16' E 004°21'0 0.0
2017-Nov-18 16:59N 51°16' E 004°21'0 0.0
2017-Nov-18 16:29N 51°16' E 004°21'0 0.0
2017-Nov-18 15:59N 51°16' E 004°21'0 0.0
2017-Nov-18 15:29N 51°16' E 004°21'0 0.0
2017-Nov-18 14:59N 51°16' E 004°21'0 0.0
2017-Nov-18 14:23N 51°16' E 004°21'0 0.0
2017-Nov-18 13:59N 51°16' E 004°21'0 0.0
2017-Nov-18 13:29N 51°16' E 004°21'0 0.0
2017-Nov-18 12:59N 51°16' E 004°21'0 0.0
2017-Nov-18 12:29N 51°16' E 004°21'0 0.0
2017-Nov-18 11:59N 51°16' E 004°21'0 0.0
2017-Nov-18 11:26N 51°16' E 004°21'0 0.0
2017-Nov-18 10:59N 51°16' E 004°21'0 0.0
2017-Nov-18 10:29N 51°16' E 004°21'0 0.0
2017-Nov-18 09:59N 51°16' E 004°21'0 0.0
2017-Nov-18 09:23N 51°16' E 004°21'0 0.0
2017-Nov-18 08:53N 51°16' E 004°21'0 0.0
2017-Nov-18 08:29N 51°16' E 004°21'0 0.0
2017-Nov-18 07:53N 51°16' E 004°21'0 0.0
2017-Nov-18 07:29N 51°16' E 004°21'0 0.0
2017-Nov-18 06:59N 51°16' E 004°21'0 0.0
2017-Nov-18 06:26N 51°16' E 004°21'0 0.0
2017-Nov-18 05:59N 51°16' E 004°21'0 0.0
2017-Nov-18 05:29N 51°16' E 004°21'0 0.0
2017-Nov-18 04:53N 51°16' E 004°21'0 0.0
2017-Nov-18 04:20N 51°16' E 004°21'0 0.0
2017-Nov-18 03:59N 51°16' E 004°21'0 0.0
2017-Nov-18 03:26N 51°16' E 004°21'0 0.0
2017-Nov-18 02:59N 51°16' E 004°21'0 0.0
2017-Nov-18 02:23N 51°16' E 004°21'0 0.0
2017-Nov-18 01:47N 51°16' E 004°21'0 0.0
2017-Nov-18 01:29N 51°16' E 004°21'0 0.0
2017-Nov-18 00:50N 51°16' E 004°21'0 0.0
2017-Nov-18 00:20N 51°16' E 004°21'0 0.0
2017-Nov-17 23:59N 51°16' E 004°21'0 0.0
2017-Nov-17 23:23N 51°16' E 004°21'0 0.0
2017-Nov-17 22:53N 51°16' E 004°21'0 0.0
2017-Nov-17 22:29N 51°16' E 004°21'0 0.0
2017-Nov-17 21:59N 51°16' E 004°21'0 0.0
2017-Nov-17 21:26N 51°16' E 004°21'0 0.0
2017-Nov-17 20:59N 51°16' E 004°21'0 0.0
2017-Nov-17 20:29N 51°16' E 004°21'0 0.0
2017-Nov-17 19:23N 51°16' E 004°21'0 0.0
2017-Nov-17 18:53N 51°16' E 004°21'0 0.0
2017-Nov-17 18:23N 51°16' E 004°21'0 0.0
2017-Nov-17 17:53N 51°16' E 004°21'0 0.0
2017-Nov-17 17:14N 51°16' E 004°21'0 0.0
2017-Nov-17 16:44N 51°16' E 004°21'0 0.0
2017-Nov-17 16:29N 51°16' E 004°21'0 0.0
2017-Nov-17 15:56N 51°16' E 004°21'0 0.0
2017-Nov-17 15:26N 51°16' E 004°21'0 0.0
2017-Nov-17 14:56N 51°16' E 004°21'0 0.0
2017-Nov-17 14:26N 51°16' E 004°21'0 0.0
2017-Nov-17 13:59N 51°16' E 004°21'0 0.0
2017-Nov-17 13:29N 51°16' E 004°21'0 0.0
2017-Nov-17 12:59N 51°16' E 004°21'0 0.0
2017-Nov-17 12:29N 51°16' E 004°21'0 0.0
2017-Nov-17 11:08N 51°16' E 004°21'0 0.0
2017-Nov-17 10:53N 51°16' E 004°21'0 0.0
2017-Nov-17 10:14N 51°16' E 004°21'0 0.0
2017-Nov-17 09:59N 51°16' E 004°21'0 0.0
2017-Nov-17 09:29N 51°16' E 004°21'0 0.0
2017-Nov-17 08:56N 51°16' E 004°21'0 0.0
2017-Nov-17 08:29N 51°16' E 004°21'0 0.0
2017-Nov-17 07:59N 51°16' E 004°21'0 0.0
2017-Nov-17 07:23N 51°16' E 004°21'0 0.0
2017-Nov-17 06:50N 51°16' E 004°21'0 0.0
2017-Nov-17 06:29N 51°16' E 004°21'0 0.0
2017-Nov-17 05:59N 51°16' E 004°21'0 0.0
2017-Nov-17 05:29N 51°16' E 004°21'0 0.0
2017-Nov-17 04:59N 51°16' E 004°21'0 0.0
2017-Nov-17 04:11N 51°16' E 004°21'0 0.0
2017-Nov-17 03:56N 51°16' E 004°21'0 0.0
2017-Nov-17 03:29N 51°16' E 004°21'0 0.0
2017-Nov-17 02:59N 51°16' E 004°21'0 0.0
2017-Nov-17 02:29N 51°16' E 004°21'0 0.0
2017-Nov-17 01:56N 51°16' E 004°21'0 0.0
2017-Nov-17 01:29N 51°16' E 004°21'0 0.0
2017-Nov-17 00:59N 51°16' E 004°21'0 0.0
2017-Nov-17 00:29N 51°16' E 004°21'0 0.0
2017-Nov-16 23:53N 51°16' E 004°21'0 0.0
2017-Nov-16 23:29N 51°16' E 004°21'0 0.0
2017-Nov-16 22:59N 51°16' E 004°21'0 0.0
2017-Nov-16 22:29N 51°16' E 004°21'0 0.0
2017-Nov-16 21:56N 51°16' E 004°21'0 0.0
2017-Nov-16 21:23N 51°16' E 004°21'0 0.0
2017-Nov-16 21:00N 51°16' E 004°21'1 1.3
2017-Nov-16 20:30N 51°17' E 004°20'3 6.3
2017-Nov-16 20:00N 51°20' E 004°18'1 2.4
2017-Nov-16 19:30N 51°21' E 004°17'0 0.0
2017-Nov-16 19:00N 51°21' E 004°17'1 1.8
2017-Nov-16 18:30N 51°21' E 004°16'4 7.6
2017-Nov-16 18:00N 51°24' E 004°12'5 9.8
2017-Nov-16 17:31N 51°22' E 004°05'5 9.1
2017-Nov-16 17:00N 51°26' E 004°01'5 9.3
2017-Nov-16 16:31N 51°22' E 003°56'510.2
2017-Nov-16 16:00N 51°21' E 003°48'510.2
2017-Nov-16 15:30N 51°25' E 003°42'4 8.4
2017-Nov-16 15:01N 51°26' E 003°36'4 7.9
2017-Nov-16 14:30N 51°25' E 003°30'611.8
2017-Nov-16 14:00N 51°24' E 003°20'713.5
2017-Nov-16 13:31N 51°24' E 003°10'713.6
2017-Nov-16 13:00N 51°25' E 002°59'713.8
2017-Nov-16 12:30N 51°25' E 002°47'4 8.4
2017-Nov-16 11:58N 51°26' E 002°41'0 0.1
2017-Nov-16 11:23N 51°26' E 002°41'0 0.0
2017-Nov-16 10:56N 51°26' E 002°41'0 0.0
2017-Nov-16 10:29N 51°26' E 002°41'0 0.0
2017-Nov-16 09:56N 51°26' E 002°41'0 0.0
2017-Nov-16 09:29N 51°26' E 002°41'0 0.3
2017-Nov-16 08:59N 51°26' E 002°41'0 0.2
2017-Nov-16 08:29N 51°26' E 002°41'0 0.0
2017-Nov-16 07:59N 51°26' E 002°41'0 0.0
2017-Nov-16 07:30N 51°26' E 002°41'0 0.0
2017-Nov-16 07:00N 51°26' E 002°41'0 0.0
2017-Nov-16 06:30N 51°26' E 002°41'0 0.0
2017-Nov-16 05:57N 51°26' E 002°41'0 0.1
2017-Nov-16 05:26N 51°26' E 002°41'0 0.2
2017-Nov-16 05:00N 51°26' E 002°41'0 0.1
2017-Nov-16 04:27N 51°26' E 002°41'0 0.1
2017-Nov-16 03:59N 51°26' E 002°41'0 0.1
2017-Nov-16 03:14N 51°26' E 002°41'0 0.0
2017-Nov-16 02:50N 51°26' E 002°41'0 0.0
2017-Nov-16 02:30N 51°26' E 002°41'0 0.0
2017-Nov-15 21:00N 51°26' E 002°41'0 0.4
2017-Nov-15 20:29N 51°26' E 002°41'0 0.1
2017-Nov-15 19:59N 51°26' E 002°41'0 0.0
2017-Nov-15 19:26N 51°26' E 002°41'0 0.0
2017-Nov-15 18:56N 51°26' E 002°41'0 0.0
2017-Nov-15 18:09N 51°26' E 002°41'0 0.0
2017-Nov-15 18:00N 51°26' E 002°41'0 0.0
2017-Nov-15 17:29N 51°26' E 002°41'0 0.0
2017-Nov-15 16:59N 51°26' E 002°41'0 0.1
2017-Nov-15 16:29N 51°26' E 002°41'0 0.1
2017-Nov-15 15:59N 51°26' E 002°41'0 0.1
2017-Nov-15 15:29N 51°26' E 002°41'0 0.1
2017-Nov-15 15:00N 51°26' E 002°41'0 0.0
2017-Nov-15 14:26N 51°26' E 002°41'0 0.0
2017-Nov-15 13:59N 51°26' E 002°41'0 0.0
2017-Nov-15 13:29N 51°26' E 002°41'0 0.0
2017-Nov-15 12:59N 51°26' E 002°41'0 0.0
2017-Nov-15 12:29N 51°26' E 002°41'0 0.0
2017-Nov-15 12:00N 51°26' E 002°41'0 0.0
2017-Nov-15 11:26N 51°26' E 002°41'0 0.0
2017-Nov-15 10:59N 51°26' E 002°41'0 0.0
2017-Nov-15 10:29N 51°26' E 002°41'0 0.0
2017-Nov-15 09:11N 51°26' E 002°41'0 0.1
2017-Nov-15 08:59N 51°26' E 002°41'  
Track history (hours):
 
Tides and Currents Weather Stations Pressure Air Temp Water Temp Dewpoint Dewpoint Depression Visibility Wind Speed Wind Dir Waves Ship Positions

Nord Snow Queen

Last reported at 2017-Nov-25 08:52 UTC. Time now 2017-Dec-12 12:39 UTC.
Position N 27°35' W 015°14'.
Warning: this ship's position is 17 days out of date.

Length 183 m; draft 11 m.

Type: Ship. MMSI: 564359000.

Date/timePositionNaut miles runAvg speedWind from/ knotsBaromVisibWave heightAir tempDewpointWater temp
2017-Nov-25 08:52N 27°35' W 015°14'512.2
2017-Nov-25 08:30N 27°39' W 015°12'612.3
2017-Nov-25 08:00N 27°45' W 015°10'612.6
2017-Nov-25 07:30N 27°51' W 015°07'713.0
2017-Nov-25 07:00N 27°57' W 015°05'612.9
2017-Nov-25 06:30N 28°03' W 015°02'612.5
2017-Nov-25 06:00N 28°09' W 014°60'612.5
2017-Nov-25 05:30N 28°15' W 014°57'612.8
2017-Nov-25 05:00N 28°21' W 014°55'713.1
2017-Nov-25 04:30N 28°27' W 014°52'713.3
2017-Nov-25 04:00N 28°33' W 014°50'713.0
2017-Nov-25 03:30N 28°40' W 014°48'612.9
2017-Nov-25 03:00N 28°46' W 014°46'712.9
2017-Nov-25 02:28N 28°53' W 014°45'612.9
2017-Nov-25 02:01N 28°58' W 014°43'713.1
2017-Nov-25 01:30N 29°05' W 014°41'713.0
2017-Nov-25 01:01N 29°11' W 014°39'713.0
2017-Nov-25 00:30N 29°17' W 014°37'613.0
2017-Nov-25 00:01N 29°24' W 014°35'713.0
2017-Nov-24 23:31N 29°30' W 014°33'613.0
2017-Nov-24 23:01N 29°36' W 014°31'713.0
2017-Nov-24 22:30N 29°42' W 014°29'612.8
2017-Nov-24 22:00N 29°49' W 014°27'612.6
2017-Nov-24 21:30N 29°55' W 014°25'612.6
2017-Nov-24 21:00N 30°01' W 014°24'612.6
2017-Nov-24 20:30N 30°07' W 014°22'612.5
2017-Nov-24 20:00N 30°13' W 014°20'612.7
2017-Nov-24 19:30N 30°19' W 014°18'612.7
2017-Nov-24 19:00N 30°25' W 014°16'612.4
2017-Nov-24 18:30N 30°31' W 014°14'612.3
2017-Nov-24 18:00N 30°37' W 014°12'912.5
2017-Nov-24 17:15N 30°46' W 014°10'812.3
2017-Nov-24 16:37N 30°54' W 014°07'3212.1
2017-Nov-24 13:57N 31°25' W 013°57'612.1
2017-Nov-24 13:28N 31°31' W 013°56'11912.4
2017-Nov-24 03:50N 33°26' W 013°19'412.7
2017-Nov-24 03:29N 33°30' W 013°18'  
2017-Nov-19 22:47N 50°27' W 000°23'311.9
2017-Nov-19 22:30N 50°28' W 000°18'611.6
2017-Nov-19 22:00N 50°29' W 000°09'611.3
2017-Nov-19 21:30N 50°31' W 000°01'611.2
2017-Nov-19 21:00N 50°33' E 000°08'711.4
2017-Nov-19 20:26N 50°34' E 000°17'512.0
2017-Nov-19 20:00N 50°36' E 000°25'612.6
2017-Nov-19 19:30N 50°38' E 000°35'713.8
2017-Nov-19 19:00N 50°42' E 000°43'714.5
2017-Nov-19 18:30N 50°46' E 000°53'1414.8
2017-Nov-19 17:32N 50°55' E 001°11'114.7
2017-Nov-19 17:28N 50°56' E 001°12'714.5
2017-Nov-19 17:00N 51°00' E 001°20'714.0
2017-Nov-19 16:30N 51°05' E 001°28'713.3
2017-Nov-19 16:00N 51°09' E 001°37'612.5
2017-Nov-19 15:30N 51°13' E 001°44'612.0
2017-Nov-19 15:00N 51°17' E 001°50'611.6
2017-Nov-19 14:30N 51°22' E 001°55'5 9.8
2017-Nov-19 14:00N 51°25' E 002°02'612.0
2017-Nov-19 13:30N 51°22' E 002°10'611.0
2017-Nov-19 13:00N 51°20' E 002°19'611.5
2017-Nov-19 12:30N 51°22' E 002°28'611.3
2017-Nov-19 11:58N 51°23' E 002°37'510.7
2017-Nov-19 11:30N 51°22' E 002°45'510.6
2017-Nov-19 11:00N 51°22' E 002°54'611.8
2017-Nov-19 10:30N 51°24' E 003°02'612.0
2017-Nov-19 10:00N 51°24' E 003°12'611.7
2017-Nov-19 09:30N 51°25' E 003°21'611.8
2017-Nov-19 09:00N 51°25' E 003°31'4 8.4
2017-Nov-19 08:30N 51°26' E 003°37'4 9.0
2017-Nov-19 08:01N 51°23' E 003°43'612.1
2017-Nov-19 07:30N 51°21' E 003°52'612.7
2017-Nov-19 07:00N 51°26' E 003°58'5 9.7
2017-Nov-19 06:31N 51°22' E 004°04'611.0
2017-Nov-19 06:00N 51°23' E 004°13'4 7.5
2017-Nov-19 05:31N 51°21' E 004°17'0 0.1
2017-Nov-19 05:00N 51°21' E 004°17'0 0.0
2017-Nov-19 04:30N 51°21' E 004°17'1 1.9
2017-Nov-19 04:00N 51°20' E 004°18'4 7.2
2017-Nov-19 03:30N 51°17' E 004°21'1 1.0
2017-Nov-19 02:59N 51°16' E 004°21'0 0.0
2017-Nov-19 02:29N 51°16' E 004°21'0 0.0
2017-Nov-19 01:59N 51°16' E 004°21'0 0.0
2017-Nov-19 01:29N 51°16' E 004°21'0 0.0
2017-Nov-19 00:56N 51°16' E 004°21'0 0.0
2017-Nov-19 00:29N 51°16' E 004°21'0 0.0
2017-Nov-18 23:59N 51°16' E 004°21'0 0.0
2017-Nov-18 23:20N 51°16' E 004°21'0 0.0
2017-Nov-18 22:56N 51°16' E 004°21'0 0.0
2017-Nov-18 22:20N 51°16' E 004°21'0 0.0
2017-Nov-18 21:53N 51°16' E 004°21'0 0.0
2017-Nov-18 21:26N 51°16' E 004°21'0 0.0
2017-Nov-18 20:59N 51°16' E 004°21'0 0.0
2017-Nov-18 20:17N 51°16' E 004°21'0 0.0
2017-Nov-18 19:56N 51°16' E 004°21'0 0.0
2017-Nov-18 19:29N 51°16' E 004°21'0 0.0
2017-Nov-18 18:56N 51°16' E 004°21'0 0.0
2017-Nov-18 18:20N 51°16' E 004°21'0 0.0
2017-Nov-18 17:56N 51°16' E 004°21'0 0.0
2017-Nov-18 17:29N 51°16' E 004°21'0 0.0
2017-Nov-18 16:59N 51°16' E 004°21'0 0.0
2017-Nov-18 16:29N 51°16' E 004°21'0 0.0
2017-Nov-18 15:59N 51°16' E 004°21'0 0.0
2017-Nov-18 15:29N 51°16' E 004°21'0 0.0
2017-Nov-18 14:59N 51°16' E 004°21'0 0.0
2017-Nov-18 14:23N 51°16' E 004°21'0 0.0
2017-Nov-18 13:59N 51°16' E 004°21'0 0.0
2017-Nov-18 13:29N 51°16' E 004°21'0 0.0
2017-Nov-18 12:59N 51°16' E 004°21'0 0.0
2017-Nov-18 12:29N 51°16' E 004°21'0 0.0
2017-Nov-18 11:59N 51°16' E 004°21'0 0.0
2017-Nov-18 11:26N 51°16' E 004°21'0 0.0
2017-Nov-18 10:59N 51°16' E 004°21'0 0.0
2017-Nov-18 10:29N 51°16' E 004°21'0 0.0
2017-Nov-18 09:59N 51°16' E 004°21'0 0.0
2017-Nov-18 09:23N 51°16' E 004°21'0 0.0
2017-Nov-18 08:53N 51°16' E 004°21'0 0.0
2017-Nov-18 08:29N 51°16' E 004°21'0 0.0
2017-Nov-18 07:53N 51°16' E 004°21'0 0.0
2017-Nov-18 07:29N 51°16' E 004°21'0 0.0
2017-Nov-18 06:59N 51°16' E 004°21'0 0.0
2017-Nov-18 06:26N 51°16' E 004°21'0 0.0
2017-Nov-18 05:59N 51°16' E 004°21'0 0.0
2017-Nov-18 05:29N 51°16' E 004°21'0 0.0
2017-Nov-18 04:53N 51°16' E 004°21'0 0.0
2017-Nov-18 04:20N 51°16' E 004°21'0 0.0
2017-Nov-18 03:59N 51°16' E 004°21'0 0.0
2017-Nov-18 03:26N 51°16' E 004°21'0 0.0
2017-Nov-18 02:59N 51°16' E 004°21'0 0.0
2017-Nov-18 02:23N 51°16' E 004°21'0 0.0
2017-Nov-18 01:47N 51°16' E 004°21'0 0.0
2017-Nov-18 01:29N 51°16' E 004°21'0 0.0
2017-Nov-18 00:50N 51°16' E 004°21'0 0.0
2017-Nov-18 00:20N 51°16' E 004°21'0 0.0
2017-Nov-17 23:59N 51°16' E 004°21'0 0.0
2017-Nov-17 23:23N 51°16' E 004°21'0 0.0
2017-Nov-17 22:53N 51°16' E 004°21'0 0.0
2017-Nov-17 22:29N 51°16' E 004°21'0 0.0
2017-Nov-17 21:59N 51°16' E 004°21'0 0.0
2017-Nov-17 21:26N 51°16' E 004°21'0 0.0
2017-Nov-17 20:59N 51°16' E 004°21'0 0.0
2017-Nov-17 20:29N 51°16' E 004°21'0 0.0
2017-Nov-17 19:23N 51°16' E 004°21'0 0.0
2017-Nov-17 18:53N 51°16' E 004°21'0 0.0
2017-Nov-17 18:23N 51°16' E 004°21'0 0.0
2017-Nov-17 17:53N 51°16' E 004°21'0 0.0
2017-Nov-17 17:14N 51°16' E 004°21'0 0.0
2017-Nov-17 16:44N 51°16' E 004°21'0 0.0
2017-Nov-17 16:29N 51°16' E 004°21'0 0.0
2017-Nov-17 15:56N 51°16' E 004°21'0 0.0
2017-Nov-17 15:26N 51°16' E 004°21'0 0.0
2017-Nov-17 14:56N 51°16' E 004°21'0 0.0
2017-Nov-17 14:26N 51°16' E 004°21'0 0.0
2017-Nov-17 13:59N 51°16' E 004°21'0 0.0
2017-Nov-17 13:29N 51°16' E 004°21'0 0.0
2017-Nov-17 12:59N 51°16' E 004°21'0 0.0
2017-Nov-17 12:29N 51°16' E 004°21'0 0.0
2017-Nov-17 11:08N 51°16' E 004°21'0 0.0
2017-Nov-17 10:53N 51°16' E 004°21'0 0.0
2017-Nov-17 10:14N 51°16' E 004°21'0 0.0
2017-Nov-17 09:59N 51°16' E 004°21'0 0.0
2017-Nov-17 09:29N 51°16' E 004°21'0 0.0
2017-Nov-17 08:56N 51°16' E 004°21'0 0.0
2017-Nov-17 08:29N 51°16' E 004°21'0 0.0
2017-Nov-17 07:59N 51°16' E 004°21'0 0.0
2017-Nov-17 07:23N 51°16' E 004°21'0 0.0
2017-Nov-17 06:50N 51°16' E 004°21'0 0.0
2017-Nov-17 06:29N 51°16' E 004°21'0 0.0
2017-Nov-17 05:59N 51°16' E 004°21'0 0.0
2017-Nov-17 05:29N 51°16' E 004°21'0 0.0
2017-Nov-17 04:59N 51°16' E 004°21'0 0.0
2017-Nov-17 04:11N 51°16' E 004°21'0 0.0
2017-Nov-17 03:56N 51°16' E 004°21'0 0.0
2017-Nov-17 03:29N 51°16' E 004°21'0 0.0
2017-Nov-17 02:59N 51°16' E 004°21'0 0.0
2017-Nov-17 02:29N 51°16' E 004°21'0 0.0
2017-Nov-17 01:56N 51°16' E 004°21'0 0.0
2017-Nov-17 01:29N 51°16' E 004°21'0 0.0
2017-Nov-17 00:59N 51°16' E 004°21'0 0.0
2017-Nov-17 00:29N 51°16' E 004°21'0 0.0
2017-Nov-16 23:53N 51°16' E 004°21'0 0.0
2017-Nov-16 23:29N 51°16' E 004°21'0 0.0
2017-Nov-16 22:59N 51°16' E 004°21'0 0.0
2017-Nov-16 22:29N 51°16' E 004°21'0 0.0
2017-Nov-16 21:56N 51°16' E 004°21'0 0.0
2017-Nov-16 21:23N 51°16' E 004°21'0 0.0
2017-Nov-16 21:00N 51°16' E 004°21'1 1.3
2017-Nov-16 20:30N 51°17' E 004°20'3 6.3
2017-Nov-16 20:00N 51°20' E 004°18'1 2.4
2017-Nov-16 19:30N 51°21' E 004°17'0 0.0
2017-Nov-16 19:00N 51°21' E 004°17'1 1.8
2017-Nov-16 18:30N 51°21' E 004°16'4 7.6
2017-Nov-16 18:00N 51°24' E 004°12'5 9.8
2017-Nov-16 17:31N 51°22' E 004°05'5 9.1
2017-Nov-16 17:00N 51°26' E 004°01'5 9.3
2017-Nov-16 16:31N 51°22' E 003°56'510.2
2017-Nov-16 16:00N 51°21' E 003°48'510.2
2017-Nov-16 15:30N 51°25' E 003°42'4 8.4
2017-Nov-16 15:01N 51°26' E 003°36'4 7.9
2017-Nov-16 14:30N 51°25' E 003°30'611.8
2017-Nov-16 14:00N 51°24' E 003°20'713.5
2017-Nov-16 13:31N 51°24' E 003°10'713.6
2017-Nov-16 13:00N 51°25' E 002°59'713.8
2017-Nov-16 12:30N 51°25' E 002°47'4 8.4
2017-Nov-16 11:58N 51°26' E 002°41'0 0.1
2017-Nov-16 11:23N 51°26' E 002°41'0 0.0
2017-Nov-16 10:56N 51°26' E 002°41'0 0.0
2017-Nov-16 10:29N 51°26' E 002°41'0 0.0
2017-Nov-16 09:56N 51°26' E 002°41'0 0.0
2017-Nov-16 09:29N 51°26' E 002°41'0 0.3
2017-Nov-16 08:59N 51°26' E 002°41'0 0.2
2017-Nov-16 08:29N 51°26' E 002°41'0 0.0
2017-Nov-16 07:59N 51°26' E 002°41'0 0.0
2017-Nov-16 07:30N 51°26' E 002°41'0 0.0
2017-Nov-16 07:00N 51°26' E 002°41'0 0.0
2017-Nov-16 06:30N 51°26' E 002°41'0 0.0
2017-Nov-16 05:57N 51°26' E 002°41'0 0.1
2017-Nov-16 05:26N 51°26' E 002°41'0 0.2
2017-Nov-16 05:00N 51°26' E 002°41'0 0.1
2017-Nov-16 04:27N 51°26' E 002°41'0 0.1
2017-Nov-16 03:59N 51°26' E 002°41'0 0.1
2017-Nov-16 03:14N 51°26' E 002°41'0 0.0
2017-Nov-16 02:50N 51°26' E 002°41'0 0.0
2017-Nov-16 02:30N 51°26' E 002°41'0 0.0
2017-Nov-15 21:00N 51°26' E 002°41'0 0.4
2017-Nov-15 20:29N 51°26' E 002°41'0 0.1
2017-Nov-15 19:59N 51°26' E 002°41'0 0.0
2017-Nov-15 19:26N 51°26' E 002°41'0 0.0
2017-Nov-15 18:56N 51°26' E 002°41'0 0.0
2017-Nov-15 18:09N 51°26' E 002°41'0 0.0
2017-Nov-15 18:00N 51°26' E 002°41'0 0.0
2017-Nov-15 17:29N 51°26' E 002°41'0 0.0
2017-Nov-15 16:59N 51°26' E 002°41'0 0.1
2017-Nov-15 16:29N 51°26' E 002°41'0 0.1
2017-Nov-15 15:59N 51°26' E 002°41'0 0.1
2017-Nov-15 15:29N 51°26' E 002°41'0 0.1
2017-Nov-15 15:00N 51°26' E 002°41'0 0.0
2017-Nov-15 14:26N 51°26' E 002°41'0 0.0
2017-Nov-15 13:59N 51°26' E 002°41'0 0.0
2017-Nov-15 13:29N 51°26' E 002°41'0 0.0
2017-Nov-15 12:59N 51°26' E 002°41'0 0.0
2017-Nov-15 12:29N 51°26' E 002°41'0 0.0
2017-Nov-15 12:00N 51°26' E 002°41'0 0.0
2017-Nov-15 11:26N 51°26' E 002°41'0 0.0
2017-Nov-15 10:59N 51°26' E 002°41'0 0.0
2017-Nov-15 10:29N 51°26' E 002°41'0 0.0
2017-Nov-15 09:11N 51°26' E 002°41'0 0.1
2017-Nov-15 08:59N 51°26' E 002°41'  

Dump ship's entire track history